sensor_id;sensor_type;location;lat;lon;timestamp;temperature;humidity
15355;DHT22;7777;52.254;9.618;2024-03-23T00:51:35;9.00;99.90
15355;DHT22;7777;52.254;9.618;2024-03-23T00:54:01;9.00;99.90
15355;DHT22;7777;52.254;9.618;2024-03-23T00:56:28;9.00;99.90
15355;DHT22;7777;52.254;9.618;2024-03-23T00:58:54;9.00;99.90
15355;DHT22;7777;52.254;9.618;2024-03-23T01:01:20;9.00;99.90
15355;DHT22;7777;52.254;9.618;2024-03-23T01:03:46;8.90;99.90
15355;DHT22;7777;52.254;9.618;2024-03-23T01:06:12;8.90;99.90
15355;DHT22;7777;52.254;9.618;2024-03-23T01:08:38;8.90;99.90
15355;DHT22;7777;52.254;9.618;2024-03-23T01:11:03;8.90;99.90
15355;DHT22;7777;52.254;9.618;2024-03-23T01:13:29;8.90;99.90
15355;DHT22;7777;52.254;9.618;2024-03-23T01:15:56;8.90;99.90
15355;DHT22;7777;52.254;9.618;2024-03-23T01:18:23;8.90;99.90
15355;DHT22;7777;52.254;9.618;2024-03-23T01:20:49;8.80;99.90
15355;DHT22;7777;52.254;9.618;2024-03-23T01:23:15;8.80;99.90
15355;DHT22;7777;52.254;9.618;2024-03-23T01:25:41;8.80;99.90
15355;DHT22;7777;52.254;9.618;2024-03-23T01:28:07;8.80;99.90
15355;DHT22;7777;52.254;9.618;2024-03-23T01:30:34;8.80;99.90
15355;DHT22;7777;52.254;9.618;2024-03-23T01:33:00;8.80;99.90
15355;DHT22;7777;52.254;9.618;2024-03-23T01:35:26;8.80;99.90
15355;DHT22;7777;52.254;9.618;2024-03-23T01:37:52;8.80;99.90
15355;DHT22;7777;52.254;9.618;2024-03-23T01:40:18;8.80;99.90
15355;DHT22;7777;52.254;9.618;2024-03-23T01:42:58;8.70;99.90
15355;DHT22;7777;52.254;9.618;2024-03-23T01:45:30;8.70;99.90
15355;DHT22;7777;52.254;9.618;2024-03-23T01:47:56;8.70;99.90
15355;DHT22;7777;52.254;9.618;2024-03-23T01:50:22;8.70;99.90
15355;DHT22;7777;52.254;9.618;2024-03-23T01:52:49;8.70;99.90
15355;DHT22;7777;52.254;9.618;2024-03-23T01:55:15;8.70;99.90
15355;DHT22;7777;52.254;9.618;2024-03-23T01:57:41;8.70;99.90
15355;DHT22;7777;52.254;9.618;2024-03-23T02:00:07;8.70;99.90
15355;DHT22;7777;52.254;9.618;2024-03-23T02:02:35;8.60;99.90
15355;DHT22;7777;52.254;9.618;2024-03-23T02:05:01;8.60;99.90
15355;DHT22;7777;52.254;9.618;2024-03-23T02:07:27;8.60;99.90
15355;DHT22;7777;52.254;9.618;2024-03-23T02:09:52;8.60;99.90
15355;DHT22;7777;52.254;9.618;2024-03-23T02:12:19;8.60;99.90
15355;DHT22;7777;52.254;9.618;2024-03-23T02:14:46;8.60;99.90
15355;DHT22;7777;52.254;9.618;2024-03-23T02:17:12;8.60;99.90
15355;DHT22;7777;52.254;9.618;2024-03-23T02:19:38;8.60;99.90
15355;DHT22;7777;52.254;9.618;2024-03-23T02:22:04;8.60;99.90
15355;DHT22;7777;52.254;9.618;2024-03-23T02:24:30;8.60;99.90
15355;DHT22;7777;52.254;9.618;2024-03-23T02:26:55;8.60;99.90
15355;DHT22;7777;52.254;9.618;2024-03-23T02:29:21;8.60;99.90
15355;DHT22;7777;52.254;9.618;2024-03-23T02:31:47;8.60;99.90
15355;DHT22;7777;52.254;9.618;2024-03-23T02:34:13;8.60;99.90
15355;DHT22;7777;52.254;9.618;2024-03-23T02:36:39;8.60;99.90
15355;DHT22;7777;52.254;9.618;2024-03-23T02:39:05;8.60;99.90
15355;DHT22;7777;52.254;9.618;2024-03-23T02:41:31;8.60;99.90
15355;DHT22;7777;52.254;9.618;2024-03-23T02:43:56;8.60;99.90
15355;DHT22;7777;52.254;9.618;2024-03-23T02:46:22;8.60;99.90
15355;DHT22;7777;52.254;9.618;2024-03-23T02:48:52;8.60;99.90
15355;DHT22;7777;52.254;9.618;2024-03-23T02:51:18;8.60;99.90
15355;DHT22;7777;52.254;9.618;2024-03-23T02:53:44;8.60;99.90
15355;DHT22;7777;52.254;9.618;2024-03-23T02:56:09;8.60;99.90
15355;DHT22;7777;52.254;9.618;2024-03-23T02:58:41;8.60;99.90
15355;DHT22;7777;52.254;9.618;2024-03-23T03:01:07;8.60;99.90
15355;DHT22;7777;52.254;9.618;2024-03-23T03:03:32;8.60;99.90
15355;DHT22;7777;52.254;9.618;2024-03-23T03:05:58;8.60;99.90
15355;DHT22;7777;52.254;9.618;2024-03-23T03:08:24;8.60;99.90
15355;DHT22;7777;52.254;9.618;2024-03-23T03:10:49;8.60;99.90
15355;DHT22;7777;52.254;9.618;2024-03-23T03:13:15;8.60;99.90
15355;DHT22;7777;52.254;9.618;2024-03-23T03:15:43;8.60;99.90
15355;DHT22;7777;52.254;9.618;2024-03-23T03:18:09;8.60;99.90
15355;DHT22;7777;52.254;9.618;2024-03-23T03:20:40;8.60;99.90
15355;DHT22;7777;52.254;9.618;2024-03-23T03:23:06;8.60;99.90
15355;DHT22;7777;52.254;9.618;2024-03-23T03:25:32;8.50;99.90
15355;DHT22;7777;52.254;9.618;2024-03-23T03:27:58;8.50;99.90
15355;DHT22;7777;52.254;9.618;2024-03-23T03:30:24;8.50;99.90
15355;DHT22;7777;52.254;9.618;2024-03-23T03:32:53;8.50;99.90
15355;DHT22;7777;52.254;9.618;2024-03-23T03:35:18;8.50;99.90
15355;DHT22;7777;52.254;9.618;2024-03-23T03:37:44;8.50;99.90
15355;DHT22;7777;52.254;9.618;2024-03-23T03:40:11;8.50;99.90
15355;DHT22;7777;52.254;9.618;2024-03-23T03:42:37;8.50;99.90
15355;DHT22;7777;52.254;9.618;2024-03-23T03:45:03;8.50;99.90
15355;DHT22;7777;52.254;9.618;2024-03-23T03:47:30;8.40;99.90
15355;DHT22;7777;52.254;9.618;2024-03-23T03:49:56;8.40;99.90
15355;DHT22;7777;52.254;9.618;2024-03-23T03:52:22;8.40;99.90
15355;DHT22;7777;52.254;9.618;2024-03-23T03:54:47;8.40;99.90
15355;DHT22;7777;52.254;9.618;2024-03-23T03:57:13;8.40;99.90
15355;DHT22;7777;52.254;9.618;2024-03-23T03:59:39;8.30;99.90
15355;DHT22;7777;52.254;9.618;2024-03-23T04:02:04;8.30;99.90
15355;DHT22;7777;52.254;9.618;2024-03-23T04:04:30;8.30;99.90
15355;DHT22;7777;52.254;9.618;2024-03-23T04:07:00;8.30;99.90
15355;DHT22;7777;52.254;9.618;2024-03-23T04:09:26;8.30;99.90
15355;DHT22;7777;52.254;9.618;2024-03-23T04:11:52;8.30;99.90
15355;DHT22;7777;52.254;9.618;2024-03-23T04:14:18;8.30;99.90
15355;DHT22;7777;52.254;9.618;2024-03-23T04:16:44;8.20;99.90
15355;DHT22;7777;52.254;9.618;2024-03-23T04:19:10;8.20;99.90
15355;DHT22;7777;52.254;9.618;2024-03-23T04:21:37;8.20;99.90
15355;DHT22;7777;52.254;9.618;2024-03-23T04:24:03;8.20;99.90
15355;DHT22;7777;52.254;9.618;2024-03-23T04:26:30;8.20;99.90
15355;DHT22;7777;52.254;9.618;2024-03-23T04:28:56;8.10;99.90
15355;DHT22;7777;52.254;9.618;2024-03-23T04:31:22;8.10;99.90
15355;DHT22;7777;52.254;9.618;2024-03-23T04:33:47;8.10;99.90
15355;DHT22;7777;52.254;9.618;2024-03-23T04:36:13;8.10;99.90
15355;DHT22;7777;52.254;9.618;2024-03-23T04:38:39;8.10;99.90
15355;DHT22;7777;52.254;9.618;2024-03-23T04:41:04;8.10;99.90
15355;DHT22;7777;52.254;9.618;2024-03-23T04:43:30;8.10;99.90
15355;DHT22;7777;52.254;9.618;2024-03-23T04:45:56;8.10;99.90
15355;DHT22;7777;52.254;9.618;2024-03-23T04:48:22;8.00;99.90
15355;DHT22;7777;52.254;9.618;2024-03-23T04:50:49;8.00;99.90
15355;DHT22;7777;52.254;9.618;2024-03-23T04:53:16;8.00;99.90
15355;DHT22;7777;52.254;9.618;2024-03-23T04:55:43;8.00;99.90
15355;DHT22;7777;52.254;9.618;2024-03-23T04:58:09;8.00;99.90
15355;DHT22;7777;52.254;9.618;2024-03-23T05:00:35;8.00;99.90
15355;DHT22;7777;52.254;9.618;2024-03-23T05:03:00;8.00;99.90
15355;DHT22;7777;52.254;9.618;2024-03-23T05:05:26;8.00;99.90
15355;DHT22;7777;52.254;9.618;2024-03-23T05:07:52;8.00;99.90
15355;DHT22;7777;52.254;9.618;2024-03-23T05:10:18;8.00;99.90
15355;DHT22;7777;52.254;9.618;2024-03-23T05:12:43;8.00;99.90
15355;DHT22;7777;52.254;9.618;2024-03-23T05:15:10;8.00;99.90
15355;DHT22;7777;52.254;9.618;2024-03-23T05:17:36;8.00;99.90
15355;DHT22;7777;52.254;9.618;2024-03-23T05:20:03;8.00;99.90
15355;DHT22;7777;52.254;9.618;2024-03-23T05:22:37;8.00;99.90
15355;DHT22;7777;52.254;9.618;2024-03-23T05:25:03;8.00;99.90
15355;DHT22;7777;52.254;9.618;2024-03-23T05:27:34;7.90;99.90
15355;DHT22;7777;52.254;9.618;2024-03-23T05:29:59;7.90;99.90
15355;DHT22;7777;52.254;9.618;2024-03-23T05:32:25;7.90;99.90
15355;DHT22;7777;52.254;9.618;2024-03-23T05:34:51;7.90;99.90
15355;DHT22;7777;52.254;9.618;2024-03-23T05:37:21;7.90;99.90
15355;DHT22;7777;52.254;9.618;2024-03-23T05:39:48;7.90;99.90
15355;DHT22;7777;52.254;9.618;2024-03-23T05:42:16;7.80;99.90
15355;DHT22;7777;52.254;9.618;2024-03-23T05:44:44;7.80;99.90
15355;DHT22;7777;52.254;9.618;2024-03-23T05:47:12;7.70;99.90
15355;DHT22;7777;52.254;9.618;2024-03-23T05:49:40;7.70;99.90
15355;DHT22;7777;52.254;9.618;2024-03-23T05:52:07;7.60;99.90
15355;DHT22;7777;52.254;9.618;2024-03-23T05:54:34;7.60;99.90
15355;DHT22;7777;52.254;9.618;2024-03-23T05:57:00;7.50;99.90
15355;DHT22;7777;52.254;9.618;2024-03-23T05:59:25;7.50;99.90
15355;DHT22;7777;52.254;9.618;2024-03-23T06:01:52;7.40;99.90
15355;DHT22;7777;52.254;9.618;2024-03-23T06:04:18;7.40;99.90
15355;DHT22;7777;52.254;9.618;2024-03-23T06:06:43;7.40;99.90
15355;DHT22;7777;52.254;9.618;2024-03-23T06:09:09;7.40;99.90
15355;DHT22;7777;52.254;9.618;2024-03-23T06:11:35;7.30;99.90
15355;DHT22;7777;52.254;9.618;2024-03-23T06:14:00;7.30;99.90
15355;DHT22;7777;52.254;9.618;2024-03-23T06:16:26;7.30;99.90
15355;DHT22;7777;52.254;9.618;2024-03-23T06:18:53;7.20;99.90
15355;DHT22;7777;52.254;9.618;2024-03-23T06:21:20;7.20;99.90
15355;DHT22;7777;52.254;9.618;2024-03-23T06:23:46;7.20;99.90
15355;DHT22;7777;52.254;9.618;2024-03-23T06:26:19;7.20;99.90
15355;DHT22;7777;52.254;9.618;2024-03-23T06:28:46;7.20;99.90
15355;DHT22;7777;52.254;9.618;2024-03-23T06:31:12;7.20;99.90
15355;DHT22;7777;52.254;9.618;2024-03-23T06:33:38;7.20;99.90
15355;DHT22;7777;52.254;9.618;2024-03-23T06:36:05;7.20;99.90
15355;DHT22;7777;52.254;9.618;2024-03-23T06:38:31;7.20;99.90
15355;DHT22;7777;52.254;9.618;2024-03-23T06:40:57;7.20;99.90
15355;DHT22;7777;52.254;9.618;2024-03-23T06:43:23;7.20;99.90
15355;DHT22;7777;52.254;9.618;2024-03-23T06:45:56;7.20;99.90
15355;DHT22;7777;52.254;9.618;2024-03-23T06:48:22;7.20;99.90
15355;DHT22;7777;52.254;9.618;2024-03-23T06:50:48;7.20;99.90
15355;DHT22;7777;52.254;9.618;2024-03-23T06:53:15;7.20;99.90
15355;DHT22;7777;52.254;9.618;2024-03-23T06:55:41;7.20;99.90
15355;DHT22;7777;52.254;9.618;2024-03-23T06:58:08;7.30;99.90
15355;DHT22;7777;52.254;9.618;2024-03-23T07:00:33;7.30;99.90
15355;DHT22;7777;52.254;9.618;2024-03-23T07:02:59;7.30;99.90
15355;DHT22;7777;52.254;9.618;2024-03-23T07:05:25;7.30;99.90
15355;DHT22;7777;52.254;9.618;2024-03-23T07:07:51;7.30;99.90
15355;DHT22;7777;52.254;9.618;2024-03-23T07:10:19;7.30;99.90
15355;DHT22;7777;52.254;9.618;2024-03-23T07:12:45;7.30;99.90
15355;DHT22;7777;52.254;9.618;2024-03-23T07:15:11;7.40;99.90
15355;DHT22;7777;52.254;9.618;2024-03-23T07:17:37;7.40;99.90
15355;DHT22;7777;52.254;9.618;2024-03-23T07:20:03;7.40;99.90
15355;DHT22;7777;52.254;9.618;2024-03-23T07:22:32;7.40;99.90
15355;DHT22;7777;52.254;9.618;2024-03-23T07:25:01;7.40;99.90
15355;DHT22;7777;52.254;9.618;2024-03-23T07:27:27;7.40;99.90
15355;DHT22;7777;52.254;9.618;2024-03-23T07:29:52;7.50;99.90
15355;DHT22;7777;52.254;9.618;2024-03-23T07:32:18;7.50;99.90
15355;DHT22;7777;52.254;9.618;2024-03-23T07:34:44;7.50;99.90
15355;DHT22;7777;52.254;9.618;2024-03-23T07:37:10;7.50;99.90
15355;DHT22;7777;52.254;9.618;2024-03-23T07:39:36;7.50;99.90
15355;DHT22;7777;52.254;9.618;2024-03-23T07:42:02;7.50;99.90
15355;DHT22;7777;52.254;9.618;2024-03-23T07:44:28;7.60;99.90
15355;DHT22;7777;52.254;9.618;2024-03-23T07:46:54;7.60;99.90
15355;DHT22;7777;52.254;9.618;2024-03-23T07:49:20;7.60;99.90
15355;DHT22;7777;52.254;9.618;2024-03-23T07:51:45;7.60;99.90
15355;DHT22;7777;52.254;9.618;2024-03-23T07:54:11;7.60;99.90
15355;DHT22;7777;52.254;9.618;2024-03-23T07:56:37;7.60;99.90
15355;DHT22;7777;52.254;9.618;2024-03-23T07:59:02;7.60;99.90
15355;DHT22;7777;52.254;9.618;2024-03-23T08:01:29;7.70;99.90
15355;DHT22;7777;52.254;9.618;2024-03-23T08:03:54;7.60;99.90
15355;DHT22;7777;52.254;9.618;2024-03-23T08:06:20;7.70;99.90
15355;DHT22;7777;52.254;9.618;2024-03-23T08:08:52;7.70;99.90
15355;DHT22;7777;52.254;9.618;2024-03-23T08:11:29;7.70;99.90
15355;DHT22;7777;52.254;9.618;2024-03-23T08:13:55;7.70;99.90
15355;DHT22;7777;52.254;9.618;2024-03-23T08:16:22;7.80;99.90
15355;DHT22;7777;52.254;9.618;2024-03-23T08:18:50;7.80;99.90
15355;DHT22;7777;52.254;9.618;2024-03-23T08:21:16;7.80;99.90
15355;DHT22;7777;52.254;9.618;2024-03-23T08:23:42;7.80;99.90
15355;DHT22;7777;52.254;9.618;2024-03-23T08:26:10;7.90;99.90
15355;DHT22;7777;52.254;9.618;2024-03-23T08:28:37;7.80;99.90
15355;DHT22;7777;52.254;9.618;2024-03-23T08:31:08;7.90;99.90
15355;DHT22;7777;52.254;9.618;2024-03-23T08:33:34;7.90;99.90
15355;DHT22;7777;52.254;9.618;2024-03-23T08:36:06;7.90;99.90
15355;DHT22;7777;52.254;9.618;2024-03-23T08:38:33;7.90;99.90
15355;DHT22;7777;52.254;9.618;2024-03-23T08:41:10;7.90;99.90
15355;DHT22;7777;52.254;9.618;2024-03-23T08:46:05;8.00;99.90
15355;DHT22;7777;52.254;9.618;2024-03-23T08:48:38;8.00;99.90
15355;DHT22;7777;52.254;9.618;2024-03-23T08:51:12;8.10;99.90
15355;DHT22;7777;52.254;9.618;2024-03-23T08:53:39;8.10;99.90
15355;DHT22;7777;52.254;9.618;2024-03-23T08:56:06;8.10;99.90
15355;DHT22;7777;52.254;9.618;2024-03-23T08:58:33;8.20;99.90
15355;DHT22;7777;52.254;9.618;2024-03-23T09:01:11;8.20;99.90
15355;DHT22;7777;52.254;9.618;2024-03-23T09:03:40;8.30;99.90
15355;DHT22;7777;52.254;9.618;2024-03-23T09:06:08;8.30;99.90
15355;DHT22;7777;52.254;9.618;2024-03-23T09:08:34;8.20;99.90
15355;DHT22;7777;52.254;9.618;2024-03-23T09:11:06;8.30;99.90
15355;DHT22;7777;52.254;9.618;2024-03-23T09:13:36;8.30;99.90
15355;DHT22;7777;52.254;9.618;2024-03-23T09:16:04;8.30;99.90
15355;DHT22;7777;52.254;9.618;2024-03-23T09:18:32;8.30;99.90
15355;DHT22;7777;52.254;9.618;2024-03-23T09:20:59;8.30;99.90
15355;DHT22;7777;52.254;9.618;2024-03-23T09:23:25;8.40;99.90
15355;DHT22;7777;52.254;9.618;2024-03-23T09:25:52;8.40;99.90
15355;DHT22;7777;52.254;9.618;2024-03-23T09:28:18;8.40;99.90
15355;DHT22;7777;52.254;9.618;2024-03-23T09:30:43;8.50;99.90
15355;DHT22;7777;52.254;9.618;2024-03-23T09:33:10;8.50;99.90
15355;DHT22;7777;52.254;9.618;2024-03-23T09:35:40;8.50;99.90
15355;DHT22;7777;52.254;9.618;2024-03-23T09:38:06;8.50;99.90
15355;DHT22;7777;52.254;9.618;2024-03-23T09:40:39;8.50;99.90
15355;DHT22;7777;52.254;9.618;2024-03-23T09:43:07;8.50;99.90
15355;DHT22;7777;52.254;9.618;2024-03-23T09:45:38;8.50;99.90
15355;DHT22;7777;52.254;9.618;2024-03-23T09:48:04;8.50;99.90
15355;DHT22;7777;52.254;9.618;2024-03-23T09:50:32;8.60;99.90
15355;DHT22;7777;52.254;9.618;2024-03-23T09:52:58;8.60;99.90
15355;DHT22;7777;52.254;9.618;2024-03-23T09:55:24;8.70;99.90
15355;DHT22;7777;52.254;9.618;2024-03-23T09:57:50;8.80;99.90
15355;DHT22;7777;52.254;9.618;2024-03-23T10:00:16;8.80;99.90
15355;DHT22;7777;52.254;9.618;2024-03-23T10:02:42;8.90;99.90
15355;DHT22;7777;52.254;9.618;2024-03-23T10:05:28;8.90;99.90
15355;DHT22;7777;52.254;9.618;2024-03-23T10:07:55;8.90;99.90
15355;DHT22;7777;52.254;9.618;2024-03-23T10:10:21;8.90;99.90
15355;DHT22;7777;52.254;9.618;2024-03-23T10:12:50;9.00;99.90
15355;DHT22;7777;52.254;9.618;2024-03-23T10:15:25;9.00;99.90
15355;DHT22;7777;52.254;9.618;2024-03-23T10:17:52;9.10;99.90
15355;DHT22;7777;52.254;9.618;2024-03-23T10:20:21;9.20;99.90
15355;DHT22;7777;52.254;9.618;2024-03-23T10:22:49;9.30;99.90
15355;DHT22;7777;52.254;9.618;2024-03-23T10:25:15;9.40;99.90
15355;DHT22;7777;52.254;9.618;2024-03-23T10:27:41;9.60;99.90
15355;DHT22;7777;52.254;9.618;2024-03-23T10:30:14;9.70;99.90
15355;DHT22;7777;52.254;9.618;2024-03-23T10:32:41;9.80;99.90
15355;DHT22;7777;52.254;9.618;2024-03-23T10:35:21;9.90;99.90
15355;DHT22;7777;52.254;9.618;2024-03-23T10:37:47;9.90;99.90
15355;DHT22;7777;52.254;9.618;2024-03-23T10:40:17;9.90;99.90
15355;DHT22;7777;52.254;9.618;2024-03-23T10:42:44;9.90;99.90
15355;DHT22;7777;52.254;9.618;2024-03-23T10:45:10;10.00;99.90
15355;DHT22;7777;52.254;9.618;2024-03-23T10:47:37;9.90;99.90
15355;DHT22;7777;52.254;9.618;2024-03-23T10:50:06;9.90;99.90
15355;DHT22;7777;52.254;9.618;2024-03-23T10:52:35;9.90;99.90
15355;DHT22;7777;52.254;9.618;2024-03-23T10:55:06;9.90;99.90
15355;DHT22;7777;52.254;9.618;2024-03-23T10:57:51;9.90;99.90
15355;DHT22;7777;52.254;9.618;2024-03-23T11:00:19;10.00;99.90
15355;DHT22;7777;52.254;9.618;2024-03-23T11:02:47;10.00;99.90
15355;DHT22;7777;52.254;9.618;2024-03-23T11:05:29;10.20;99.90
15355;DHT22;7777;52.254;9.618;2024-03-23T11:07:55;10.30;99.90
15355;DHT22;7777;52.254;9.618;2024-03-23T11:10:28;10.40;99.90
15355;DHT22;7777;52.254;9.618;2024-03-23T11:15:47;10.50;99.90
15355;DHT22;7777;52.254;9.618;2024-03-23T11:18:20;10.50;99.90
15355;DHT22;7777;52.254;9.618;2024-03-23T11:20:46;10.50;99.90
15355;DHT22;7777;52.254;9.618;2024-03-23T11:23:28;10.50;99.90
15355;DHT22;7777;52.254;9.618;2024-03-23T11:25:53;10.40;99.90
15355;DHT22;7777;52.254;9.618;2024-03-23T11:28:19;10.40;99.90
15355;DHT22;7777;52.254;9.618;2024-03-23T11:30:45;10.40;99.90
15355;DHT22;7777;52.254;9.618;2024-03-23T11:33:11;10.40;99.90
15355;DHT22;7777;52.254;9.618;2024-03-23T11:35:38;10.40;99.90
15355;DHT22;7777;52.254;9.618;2024-03-23T11:38:16;10.50;99.90
15355;DHT22;7777;52.254;9.618;2024-03-23T11:40:49;10.50;99.90
15355;DHT22;7777;52.254;9.618;2024-03-23T11:43:16;10.60;99.90
15355;DHT22;7777;52.254;9.618;2024-03-23T11:45:50;10.60;99.90
15355;DHT22;7777;52.254;9.618;2024-03-23T11:48:19;10.60;99.90
15355;DHT22;7777;52.254;9.618;2024-03-23T11:50:47;10.60;99.90
15355;DHT22;7777;52.254;9.618;2024-03-23T11:53:23;10.70;99.90
15355;DHT22;7777;52.254;9.618;2024-03-23T11:55:55;10.60;99.90
15355;DHT22;7777;52.254;9.618;2024-03-23T11:58:24;10.50;99.90
15355;DHT22;7777;52.254;9.618;2024-03-23T12:00:57;10.40;99.90
15355;DHT22;7777;52.254;9.618;2024-03-23T12:03:25;10.30;99.90
15355;DHT22;7777;52.254;9.618;2024-03-23T12:05:53;10.20;99.90
15355;DHT22;7777;52.254;9.618;2024-03-23T12:08:21;10.10;99.90
15355;DHT22;7777;52.254;9.618;2024-03-23T12:11:07;9.90;99.90
15355;DHT22;7777;52.254;9.618;2024-03-23T12:13:36;9.80;99.90
15355;DHT22;7777;52.254;9.618;2024-03-23T12:16:12;9.70;99.90
15355;DHT22;7777;52.254;9.618;2024-03-23T12:18:43;9.60;99.90
15355;DHT22;7777;52.254;9.618;2024-03-23T12:21:09;9.60;99.90
15355;DHT22;7777;52.254;9.618;2024-03-23T12:23:38;9.60;99.90
15355;DHT22;7777;52.254;9.618;2024-03-23T12:26:04;9.50;99.90
15355;DHT22;7777;52.254;9.618;2024-03-23T12:28:30;9.60;99.90
15355;DHT22;7777;52.254;9.618;2024-03-23T12:30:56;9.50;99.90
15355;DHT22;7777;52.254;9.618;2024-03-23T12:33:21;9.50;99.90
15355;DHT22;7777;52.254;9.618;2024-03-23T12:35:50;9.50;99.90
15355;DHT22;7777;52.254;9.618;2024-03-23T12:38:17;9.50;99.90
15355;DHT22;7777;52.254;9.618;2024-03-23T12:40:49;9.50;99.90
15355;DHT22;7777;52.254;9.618;2024-03-23T12:43:16;9.40;99.90
15355;DHT22;7777;52.254;9.618;2024-03-23T12:45:49;9.40;99.90
15355;DHT22;7777;52.254;9.618;2024-03-23T12:48:15;9.30;99.90
15355;DHT22;7777;52.254;9.618;2024-03-23T12:50:41;9.10;99.90
15355;DHT22;7777;52.254;9.618;2024-03-23T12:53:08;9.00;99.90
15355;DHT22;7777;52.254;9.618;2024-03-23T12:55:37;8.90;99.90
15355;DHT22;7777;52.254;9.618;2024-03-23T12:58:03;8.80;99.90
15355;DHT22;7777;52.254;9.618;2024-03-23T13:00:30;8.70;99.90
15355;DHT22;7777;52.254;9.618;2024-03-23T13:02:56;8.60;99.90
15355;DHT22;7777;52.254;9.618;2024-03-23T13:05:21;8.60;99.90
15355;DHT22;7777;52.254;9.618;2024-03-23T13:07:47;8.60;99.90
15355;DHT22;7777;52.254;9.618;2024-03-23T13:10:13;8.70;99.90
15355;DHT22;7777;52.254;9.618;2024-03-23T13:12:39;8.80;99.90
15355;DHT22;7777;52.254;9.618;2024-03-23T13:15:05;8.90;99.90
15355;DHT22;7777;52.254;9.618;2024-03-23T13:17:31;9.00;99.90
15355;DHT22;7777;52.254;9.618;2024-03-23T13:19:57;9.10;99.90
15355;DHT22;7777;52.254;9.618;2024-03-23T13:22:22;9.20;99.90
15355;DHT22;7777;52.254;9.618;2024-03-23T13:24:48;9.30;99.90
15355;DHT22;7777;52.254;9.618;2024-03-23T13:27:14;9.30;99.90
15355;DHT22;7777;52.254;9.618;2024-03-23T13:29:40;9.30;99.90
15355;DHT22;7777;52.254;9.618;2024-03-23T13:32:06;9.40;99.90
15355;DHT22;7777;52.254;9.618;2024-03-23T13:34:34;9.40;99.90
15355;DHT22;7777;52.254;9.618;2024-03-23T13:37:00;9.50;99.90
15355;DHT22;7777;52.254;9.618;2024-03-23T13:39:26;9.60;99.90
15355;DHT22;7777;52.254;9.618;2024-03-23T13:41:53;9.70;99.90
15355;DHT22;7777;52.254;9.618;2024-03-23T13:44:20;9.80;99.90
15355;DHT22;7777;52.254;9.618;2024-03-23T13:46:45;9.80;99.90
15355;DHT22;7777;52.254;9.618;2024-03-23T13:49:25;10.00;99.90
15355;DHT22;7777;52.254;9.618;2024-03-23T13:51:55;10.00;99.90
15355;DHT22;7777;52.254;9.618;2024-03-23T13:54:24;10.10;99.90
15355;DHT22;7777;52.254;9.618;2024-03-23T13:56:54;10.10;99.90
15355;DHT22;7777;52.254;9.618;2024-03-23T13:59:20;10.10;99.90
15355;DHT22;7777;52.254;9.618;2024-03-23T14:01:48;10.10;99.90
15355;DHT22;7777;52.254;9.618;2024-03-23T14:04:14;10.00;99.90
15355;DHT22;7777;52.254;9.618;2024-03-23T14:06:44;9.90;99.90
15355;DHT22;7777;52.254;9.618;2024-03-23T14:09:11;9.90;99.90
15355;DHT22;7777;52.254;9.618;2024-03-23T14:11:37;9.90;99.90
15355;DHT22;7777;52.254;9.618;2024-03-23T14:14:03;9.80;99.90
15355;DHT22;7777;52.254;9.618;2024-03-23T14:16:32;9.80;99.90
15355;DHT22;7777;52.254;9.618;2024-03-23T14:18:59;9.80;99.90
15355;DHT22;7777;52.254;9.618;2024-03-23T14:21:25;9.70;99.90
15355;DHT22;7777;52.254;9.618;2024-03-23T14:23:50;9.70;99.90
15355;DHT22;7777;52.254;9.618;2024-03-23T14:26:16;9.50;99.90
15355;DHT22;7777;52.254;9.618;2024-03-23T14:28:42;9.30;99.90
15355;DHT22;7777;52.254;9.618;2024-03-23T14:31:07;9.20;99.90
15355;DHT22;7777;52.254;9.618;2024-03-23T14:33:36;9.00;99.90
15355;DHT22;7777;52.254;9.618;2024-03-23T14:36:03;8.70;99.90
15355;DHT22;7777;52.254;9.618;2024-03-23T14:38:29;8.50;99.90
15355;DHT22;7777;52.254;9.618;2024-03-23T14:40:59;8.40;99.90
15355;DHT22;7777;52.254;9.618;2024-03-23T14:43:26;8.20;99.90
15355;DHT22;7777;52.254;9.618;2024-03-23T14:46:14;8.10;99.90
15355;DHT22;7777;52.254;9.618;2024-03-23T14:48:42;8.00;99.90
15355;DHT22;7777;52.254;9.618;2024-03-23T14:51:09;7.90;99.90
15355;DHT22;7777;52.254;9.618;2024-03-23T14:53:39;7.90;99.90
15355;DHT22;7777;52.254;9.618;2024-03-23T14:56:07;7.80;99.90
15355;DHT22;7777;52.254;9.618;2024-03-23T14:58:34;7.80;99.90
15355;DHT22;7777;52.254;9.618;2024-03-23T15:01:04;7.80;99.90
15355;DHT22;7777;52.254;9.618;2024-03-23T15:03:35;7.80;99.90
15355;DHT22;7777;52.254;9.618;2024-03-23T15:06:01;7.80;99.90
15355;DHT22;7777;52.254;9.618;2024-03-23T15:08:28;7.80;99.90
15355;DHT22;7777;52.254;9.618;2024-03-23T15:10:54;7.90;99.90
15355;DHT22;7777;52.254;9.618;2024-03-23T15:13:20;7.90;99.90
15355;DHT22;7777;52.254;9.618;2024-03-23T15:15:48;8.00;99.90
15355;DHT22;7777;52.254;9.618;2024-03-23T15:18:17;8.00;99.90
15355;DHT22;7777;52.254;9.618;2024-03-23T15:20:54;8.00;99.90
15355;DHT22;7777;52.254;9.618;2024-03-23T15:23:21;8.10;99.90
15355;DHT22;7777;52.254;9.618;2024-03-23T15:25:55;8.10;99.90
15355;DHT22;7777;52.254;9.618;2024-03-23T15:28:23;8.10;99.90
15355;DHT22;7777;52.254;9.618;2024-03-23T15:30:49;8.10;99.90
15355;DHT22;7777;52.254;9.618;2024-03-23T15:33:15;8.20;99.90
15355;DHT22;7777;52.254;9.618;2024-03-23T15:35:41;8.20;99.90
15355;DHT22;7777;52.254;9.618;2024-03-23T15:38:07;8.20;99.90
15355;DHT22;7777;52.254;9.618;2024-03-23T15:40:33;8.20;99.90
15355;DHT22;7777;52.254;9.618;2024-03-23T15:42:59;8.20;99.90
15355;DHT22;7777;52.254;9.618;2024-03-23T15:45:25;8.10;99.90
15355;DHT22;7777;52.254;9.618;2024-03-23T15:47:51;8.10;99.90
15355;DHT22;7777;52.254;9.618;2024-03-23T15:50:17;8.10;99.90
15355;DHT22;7777;52.254;9.618;2024-03-23T15:52:43;8.10;99.90
15355;DHT22;7777;52.254;9.618;2024-03-23T15:55:09;8.00;99.90
15355;DHT22;7777;52.254;9.618;2024-03-23T15:57:36;8.00;99.90
15355;DHT22;7777;52.254;9.618;2024-03-23T16:00:02;8.00;99.90
15355;DHT22;7777;52.254;9.618;2024-03-23T16:02:30;7.80;99.90
15355;DHT22;7777;52.254;9.618;2024-03-23T16:04:55;7.80;99.90
15355;DHT22;7777;52.254;9.618;2024-03-23T16:07:23;7.70;99.90
15355;DHT22;7777;52.254;9.618;2024-03-23T16:09:49;7.60;99.90
15355;DHT22;7777;52.254;9.618;2024-03-23T16:12:14;7.50;99.90
15355;DHT22;7777;52.254;9.618;2024-03-23T16:14:42;7.40;99.90
15355;DHT22;7777;52.254;9.618;2024-03-23T16:17:07;7.40;99.90
15355;DHT22;7777;52.254;9.618;2024-03-23T16:19:33;7.40;99.90
15355;DHT22;7777;52.254;9.618;2024-03-23T16:21:58;7.40;99.90
15355;DHT22;7777;52.254;9.618;2024-03-23T16:24:24;7.30;99.90
15355;DHT22;7777;52.254;9.618;2024-03-23T16:26:50;7.30;99.90
15355;DHT22;7777;52.254;9.618;2024-03-23T16:29:16;7.30;99.90
15355;DHT22;7777;52.254;9.618;2024-03-23T16:31:42;7.20;99.90
15355;DHT22;7777;52.254;9.618;2024-03-23T16:34:08;7.20;99.90
15355;DHT22;7777;52.254;9.618;2024-03-23T16:36:33;7.20;99.90
15355;DHT22;7777;52.254;9.618;2024-03-23T16:38:59;7.20;99.90
15355;DHT22;7777;52.254;9.618;2024-03-23T16:41:25;7.10;99.90
15355;DHT22;7777;52.254;9.618;2024-03-23T16:43:52;7.10;99.90
15355;DHT22;7777;52.254;9.618;2024-03-23T16:46:18;7.10;99.90
15355;DHT22;7777;52.254;9.618;2024-03-23T16:48:44;7.10;99.90
15355;DHT22;7777;52.254;9.618;2024-03-23T16:51:11;7.10;99.90
15355;DHT22;7777;52.254;9.618;2024-03-23T16:53:38;7.10;99.90
15355;DHT22;7777;52.254;9.618;2024-03-23T16:56:07;7.10;99.90